Time;durP1;ratioP1;P1;durP2;ratioP2;P2;SDS_P1;SDS_P2;PMS_P1;PMS_P2;Temp;Humidity;BMP_temperature;BMP_pressure;BME280_temperature;BME280_humidity;BME280_pressure;Samples;Min_cycle;Max_cycle;Signal;HPM_P1;HPM_P2
2022/12/29 00:03:03;;;;;;;3.50;3.30;;;10.40;99.90;;;;;;10348195;28;20242;-82
2022/12/29 00:08:06;;;;;;;4.13;3.83;;;10.40;99.90;;;;;;10354415;28;20356;-82
2022/12/29 00:18:28;;;;;;;3.40;3.20;;;10.50;99.90;;;;;;10336456;28;20318;-82
2022/12/29 00:44:53;;;;;;;2.93;2.73;;;10.80;99.90;;;;;;10329201;28;20289;-82
2022/12/29 00:49:55;;;;;;;2.70;2.50;;;10.80;99.90;;;;;;10366930;28;20238;-83
2022/12/29 00:54:59;;;;;;;3.80;3.07;;;10.90;99.90;;;;;;10359366;28;20196;-83
2022/12/29 01:00:01;;;;;;;3.00;2.80;;;11.00;99.90;;;;;;10360659;28;20227;-82
2022/12/29 01:05:03;;;;;;;3.20;2.90;;;11.10;99.90;;;;;;10331942;28;20195;-82
2022/12/29 01:10:10;;;;;;;3.03;2.83;;;11.10;99.90;;;;;;10321030;28;20215;-81
2022/12/29 01:15:14;;;;;;;3.00;2.80;;;11.20;99.90;;;;;;10369764;28;20194;-81
2022/12/29 01:20:17;;;;;;;2.60;2.50;;;11.30;99.90;;;;;;10357664;28;20226;-81
2022/12/29 01:25:21;;;;;;;2.20;2.10;;;11.40;99.90;;;;;;10357602;28;20203;-81
2022/12/29 01:30:23;;;;;;;3.30;3.00;;;11.50;99.90;;;;;;10345962;28;20283;-81
2022/12/29 01:35:25;;;;;;;3.50;3.23;;;11.50;99.90;;;;;;10324958;28;20660;-82
2022/12/29 01:40:28;;;;;;;4.60;3.13;;;11.50;99.90;;;;;;10337342;28;20219;-80
2022/12/29 01:45:30;;;;;;;3.03;2.83;;;11.50;99.90;;;;;;10325689;28;20667;-82
2022/12/29 01:50:35;;;;;;;3.00;2.80;;;11.50;99.90;;;;;;10339550;28;20230;-81
2022/12/29 01:55:42;;;;;;;3.07;2.83;;;11.60;99.90;;;;;;10317272;28;20228;-80
2022/12/29 02:00:44;;;;;;;3.10;2.90;;;11.60;99.90;;;;;;10314753;28;20230;-81
2022/12/29 02:05:52;;;;;;;3.10;2.80;;;11.50;99.90;;;;;;10314410;28;20191;-81
2022/12/29 02:10:57;;;;;;;3.13;2.73;;;11.40;99.90;;;;;;10329622;28;20247;-81
2022/12/29 02:16:09;;;;;;;3.10;2.70;;;11.40;99.90;;;;;;10314220;28;20200;-83
2022/12/29 02:21:46;;;;;;;2.17;2.03;;;11.40;99.90;;;;;;10314757;28;20224;-80
2022/12/29 02:27:18;;;;;;;2.53;2.40;;;11.30;99.90;;;;;;10319348;28;20660;-80
2022/12/29 02:32:31;;;;;;;2.73;2.57;;;11.30;99.90;;;;;;10320078;28;20222;-81
2022/12/29 02:37:44;;;;;;;3.30;2.70;;;11.30;99.90;;;;;;10316421;28;20230;-80
2022/12/29 02:42:50;;;;;;;2.80;2.60;;;11.30;99.90;;;;;;10330176;28;20599;-81
2022/12/29 02:47:59;;;;;;;2.87;2.70;;;11.40;99.90;;;;;;10342755;28;20192;-82
2022/12/29 02:53:06;;;;;;;4.90;2.70;;;11.40;99.90;;;;;;10342736;28;20669;-82
2022/12/29 02:58:18;;;;;;;2.53;2.33;;;11.40;99.90;;;;;;10341784;28;20587;-82
2022/12/29 03:03:32;;;;;;;2.77;2.30;;;11.50;99.90;;;;;;10336057;28;20688;-82
2022/12/29 03:08:43;;;;;;;3.30;2.53;;;11.50;99.90;;;;;;10304909;28;20215;-82
2022/12/29 03:19:17;;;;;;;3.20;2.60;;;11.70;99.90;;;;;;10344042;28;20234;-84
2022/12/29 03:24:23;;;;;;;3.07;2.47;;;11.80;99.90;;;;;;10341337;28;20201;-84
2022/12/29 03:29:28;;;;;;;2.77;2.57;;;11.80;99.90;;;;;;10331107;28;20429;-83
2022/12/29 03:34:34;;;;;;;4.13;2.80;;;11.90;99.60;;;;;;10341039;28;20191;-81
2022/12/29 03:39:36;;;;;;;2.60;2.40;;;11.90;99.90;;;;;;10315688;28;20229;-83
2022/12/29 03:44:41;;;;;;;2.70;2.40;;;11.90;99.90;;;;;;10341956;28;20202;-82
2022/12/29 03:49:46;;;;;;;2.83;2.63;;;12.00;99.90;;;;;;10326166;28;20215;-82
2022/12/29 03:54:48;;;;;;;4.63;2.87;;;12.10;99.60;;;;;;10331978;28;20601;-81
2022/12/29 03:59:50;;;;;;;2.73;2.63;;;12.10;99.90;;;;;;10317234;28;20313;-82
2022/12/29 04:04:54;;;;;;;3.77;3.00;;;12.20;99.90;;;;;;10346250;28;20298;-84
2022/12/29 04:09:58;;;;;;;5.43;3.20;;;12.20;99.90;;;;;;10332584;28;20227;-82
2022/12/29 04:15:02;;;;;;;3.63;3.33;;;12.20;99.90;;;;;;10310640;28;20703;-82
2022/12/29 04:25:31;;;;;;;2.80;2.60;;;12.20;99.90;;;;;;10316914;28;20313;-82
2022/12/29 04:30:34;;;;;;;4.53;3.20;;;12.10;99.90;;;;;;10349908;28;20215;-83
2022/12/29 04:35:46;;;;;;;3.60;3.13;;;12.00;99.90;;;;;;10319073;28;20231;-82
2022/12/29 04:40:49;;;;;;;2.93;2.67;;;12.00;99.90;;;;;;10351563;28;20225;-82
2022/12/29 04:45:53;;;;;;;2.70;2.50;;;12.00;99.90;;;;;;10333669;28;20219;-82
2022/12/29 04:51:03;;;;;;;2.30;2.20;;;12.00;99.90;;;;;;10334811;28;20303;-82
2022/12/29 04:56:11;;;;;;;2.77;2.57;;;12.00;99.90;;;;;;10330831;28;20203;-82
2022/12/29 05:01:14;;;;;;;3.17;2.83;;;12.00;99.90;;;;;;10320081;28;20228;-82
2022/12/29 05:06:17;;;;;;;3.20;2.87;;;12.00;99.90;;;;;;10327112;28;20195;-82
2022/12/29 05:11:20;;;;;;;3.17;2.93;;;12.00;99.90;;;;;;10344179;28;20724;-82
2022/12/29 05:16:24;;;;;;;3.13;2.83;;;12.00;99.90;;;;;;10324759;28;20199;-82
2022/12/29 05:21:29;;;;;;;2.90;2.80;;;12.00;99.90;;;;;;10348990;28;20238;-82
2022/12/29 05:26:31;;;;;;;2.60;2.47;;;12.10;99.90;;;;;;10328596;28;20278;-82
2022/12/29 05:31:45;;;;;;;3.23;2.93;;;12.10;99.90;;;;;;10349724;28;20703;-82
2022/12/29 05:36:49;;;;;;;3.00;2.80;;;12.00;99.90;;;;;;10328263;28;20219;-80
2022/12/29 05:41:51;;;;;;;2.80;2.57;;;12.00;99.90;;;;;;10350174;28;20242;-81
2022/12/29 05:47:12;;;;;;;4.13;3.23;;;12.10;99.90;;;;;;10343843;28;20286;-82
2022/12/29 05:52:22;;;;;;;2.90;2.80;;;12.10;99.90;;;;;;10359115;28;20211;-81
2022/12/29 05:57:24;;;;;;;4.30;2.00;;;12.00;99.90;;;;;;10315135;28;20258;-79
2022/12/29 06:02:37;;;;;;;2.83;2.73;;;12.10;99.90;;;;;;10342319;28;20281;-79
2022/12/29 06:07:40;;;;;;;3.43;2.70;;;12.20;99.90;;;;;;10337799;28;20202;-80
2022/12/29 06:12:43;;;;;;;3.60;3.30;;;12.20;99.90;;;;;;10340542;28;20215;-80
2022/12/29 06:17:46;;;;;;;3.23;2.67;;;12.20;99.90;;;;;;10344513;28;20256;-80
2022/12/29 06:22:49;;;;;;;3.13;2.40;;;12.20;99.90;;;;;;10332506;28;20216;-80
2022/12/29 06:27:52;;;;;;;2.80;2.70;;;12.20;99.90;;;;;;10328271;28;20203;-81
2022/12/29 06:32:54;;;;;;;3.77;3.10;;;12.20;99.90;;;;;;10363645;28;20295;-80
2022/12/29 06:37:57;;;;;;;3.03;2.80;;;12.20;99.90;;;;;;10336098;28;20199;-80
2022/12/29 06:42:59;;;;;;;3.97;2.80;;;12.10;99.90;;;;;;10360596;28;20254;-81
2022/12/29 06:48:27;;;;;;;2.70;2.50;;;12.10;99.90;;;;;;10336103;28;20682;-80
2022/12/29 06:53:30;;;;;;;4.30;3.57;;;12.10;99.90;;;;;;10336758;28;20219;-78
2022/12/29 06:58:32;;;;;;;3.20;2.90;;;12.00;99.90;;;;;;10330260;28;20227;-79
2022/12/29 07:03:34;;;;;;;3.27;2.90;;;12.10;99.90;;;;;;10334662;28;20219;-81
2022/12/29 07:08:39;;;;;;;3.03;2.73;;;12.00;99.80;;;;;;10354100;28;20586;-79
2022/12/29 07:13:41;;;;;;;3.43;2.77;;;11.90;99.90;;;;;;10364678;23;20635;-79
2022/12/29 07:18:43;;;;;;;2.80;2.60;;;11.90;99.90;;;;;;10347948;28;20195;-79
2022/12/29 07:23:46;;;;;;;2.77;2.57;;;11.80;99.90;;;;;;10355940;28;20207;-79
2022/12/29 07:28:48;;;;;;;2.60;2.40;;;11.90;99.90;;;;;;10335055;28;20570;-78
2022/12/29 07:33:50;;;;;;;3.00;2.77;;;11.80;99.90;;;;;;10340007;28;20623;-78
2022/12/29 07:38:54;;;;;;;3.63;2.87;;;11.70;99.90;;;;;;10347083;28;20219;-78
2022/12/29 07:43:56;;;;;;;4.00;2.60;;;11.70;99.90;;;;;;10343436;28;20223;-78
2022/12/29 07:49:21;;;;;;;2.90;2.80;;;11.70;99.90;;;;;;10334322;28;20195;-78
2022/12/29 07:54:25;;;;;;;2.70;2.50;;;11.70;99.90;;;;;;10346306;28;20251;-78
2022/12/29 07:59:27;;;;;;;2.83;2.40;;;11.70;99.90;;;;;;10348192;28;20218;-78
2022/12/29 08:04:29;;;;;;;3.37;3.07;;;11.80;99.90;;;;;;10379844;28;20219;-78
2022/12/29 08:09:32;;;;;;;3.80;2.87;;;11.90;99.90;;;;;;10346416;28;20275;-78
2022/12/29 08:14:34;;;;;;;4.40;3.20;;;11.90;99.90;;;;;;10344334;28;20240;-78
2022/12/29 08:19:36;;;;;;;3.40;3.10;;;12.00;99.90;;;;;;10331405;28;20688;-77
2022/12/29 08:24:40;;;;;;;3.43;3.23;;;12.00;99.90;;;;;;10330236;28;20724;-77
2022/12/29 08:29:42;;;;;;;3.73;3.10;;;12.10;99.90;;;;;;10329507;28;20187;-78
2022/12/29 08:34:44;;;;;;;4.20;2.67;;;12.10;99.90;;;;;;10364314;28;20207;-78
2022/12/29 08:39:47;;;;;;;3.10;2.90;;;12.10;99.90;;;;;;10330253;28;20577;-78
2022/12/29 08:44:49;;;;;;;3.47;3.17;;;12.20;99.90;;;;;;10336278;28;20211;-78
2022/12/29 08:49:51;;;;;;;4.30;3.20;;;12.30;99.90;;;;;;10330921;28;20270;-78
2022/12/29 08:54:55;;;;;;;3.50;3.20;;;12.40;99.90;;;;;;10348562;28;20210;-77
2022/12/29 08:59:57;;;;;;;3.10;2.80;;;12.40;99.90;;;;;;10356548;28;20219;-80
2022/12/29 09:05:00;;;;;;;2.27;2.07;;;12.50;99.90;;;;;;10364746;28;20292;-79
2022/12/29 09:10:04;;;;;;;2.27;2.07;;;12.50;99.90;;;;;;10301034;28;20282;-79
2022/12/29 09:15:08;;;;;;;2.80;2.60;;;12.40;99.90;;;;;;10375404;28;20192;-77
2022/12/29 09:20:10;;;;;;;2.83;2.63;;;12.50;99.90;;;;;;10338649;28;20533;-79
2022/12/29 09:25:14;;;;;;;3.63;3.33;;;12.60;99.90;;;;;;10339896;28;20223;-80
2022/12/29 09:30:16;;;;;;;4.37;2.90;;;12.60;99.90;;;;;;10362140;28;20275;-78
2022/12/29 09:35:19;;;;;;;2.57;2.30;;;12.80;99.90;;;;;;10380805;28;20710;-78
2022/12/29 09:40:29;;;;;;;4.13;3.07;;;12.80;99.90;;;;;;10340435;28;20219;-79
2022/12/29 09:45:36;;;;;;;3.40;2.67;;;12.90;99.90;;;;;;10376138;28;20188;-77
2022/12/29 09:50:41;;;;;;;3.20;2.90;;;13.00;99.90;;;;;;10378654;28;20215;-76
2022/12/29 09:55:49;;;;;;;4.30;2.90;;;13.20;99.80;;;;;;10349492;28;20195;-77
2022/12/29 10:00:58;;;;;;;3.03;2.60;;;13.30;99.90;;;;;;10356622;28;20223;-77
2022/12/29 10:06:07;;;;;;;2.80;2.60;;;13.50;99.30;;;;;;10318941;28;20203;-78
2022/12/29 10:11:21;;;;;;;2.80;2.60;;;13.60;99.40;;;;;;10336100;28;20945;-76
2022/12/29 10:16:32;;;;;;;2.97;2.77;;;13.60;99.70;;;;;;10337172;28;20282;-77
2022/12/29 10:21:46;;;;;;;4.17;3.10;;;13.50;99.90;;;;;;10333241;28;20227;-78
2022/12/29 10:26:52;;;;;;;4.23;2.93;;;13.50;99.70;;;;;;10334057;28;20191;-77
2022/12/29 10:31:59;;;;;;;4.03;2.80;;;13.60;99.80;;;;;;10336781;28;20246;-77
2022/12/29 10:37:06;;;;;;;2.43;2.33;;;13.70;99.90;;;;;;10315050;28;20298;-78
2022/12/29 10:42:20;;;;;;;2.50;2.37;;;13.80;99.50;;;;;;10315348;28;20212;-77
2022/12/29 10:47:25;;;;;;;3.03;2.70;;;13.80;99.90;;;;;;10320904;28;20196;-77
2022/12/29 10:52:29;;;;;;;2.70;2.60;;;13.80;99.90;;;;;;10313163;28;20235;-78
2022/12/29 10:57:36;;;;;;;3.33;3.07;;;13.90;99.90;;;;;;10315386;28;20227;-77
2022/12/29 11:03:10;;;;;;;3.90;2.90;;;13.90;99.90;;;;;;10323787;28;20234;-77
2022/12/29 11:08:17;;;;;;;3.50;3.00;;;14.00;99.90;;;;;;10317593;28;20583;-77
2022/12/29 11:13:29;;;;;;;4.03;2.83;;;14.10;99.90;;;;;;10318745;28;20220;-77
2022/12/29 11:18:39;;;;;;;2.80;2.60;;;14.20;99.50;;;;;;10316530;28;20286;-78
2022/12/29 11:23:43;;;;;;;3.23;2.77;;;14.20;99.50;;;;;;10319523;28;20219;-78
2022/12/29 11:29:04;;;;;;;3.13;2.87;;;14.30;99.90;;;;;;10318295;28;20290;-79
2022/12/29 11:34:09;;;;;;;2.80;2.60;;;14.20;99.90;;;;;;10319390;28;20218;-79
2022/12/29 11:39:28;;;;;;;3.13;2.87;;;14.20;99.90;;;;;;10298778;28;20200;-77
2022/12/29 11:44:38;;;;;;;2.97;2.73;;;14.10;99.90;;;;;;10314391;28;20623;-78
2022/12/29 11:49:40;;;;;;;3.20;3.00;;;14.10;99.90;;;;;;10298193;28;20222;-78
2022/12/29 11:54:44;;;;;;;2.63;2.43;;;14.10;99.90;;;;;;10341131;28;20239;-80
2022/12/29 11:59:51;;;;;;;3.87;3.00;;;13.90;99.90;;;;;;10327771;28;20587;-78
2022/12/29 12:05:01;;;;;;;3.63;3.10;;;13.80;99.90;;;;;;10331617;28;20282;-76
2022/12/29 12:10:07;;;;;;;3.77;3.37;;;13.70;99.90;;;;;;10344628;28;20220;-76
2022/12/29 12:15:19;;;;;;;2.97;2.77;;;13.70;99.90;;;;;;10327592;28;20196;-78
2022/12/29 12:20:39;;;;;;;3.07;2.83;;;13.70;99.90;;;;;;10323660;28;20221;-77
2022/12/29 12:25:51;;;;;;;5.47;3.53;;;13.60;99.90;;;;;;10330710;28;20203;-76
2022/12/29 12:30:58;;;;;;;2.80;2.60;;;13.60;99.90;;;;;;10328998;28;20726;-77
2022/12/29 12:36:17;;;;;;;2.93;2.73;;;13.60;99.90;;;;;;10329217;28;20286;-77
2022/12/29 12:41:31;;;;;;;3.00;2.80;;;13.70;99.90;;;;;;10353763;28;20218;-77
2022/12/29 12:46:58;;;;;;;3.13;2.83;;;13.70;99.90;;;;;;10314548;28;20575;-78
2022/12/29 12:52:15;;;;;;;3.17;3.00;;;13.70;99.90;;;;;;10351369;28;20230;-77
2022/12/29 12:57:29;;;;;;;2.40;2.30;;;13.50;99.90;;;;;;10346853;28;20195;-77
2022/12/29 13:02:44;;;;;;;3.17;2.97;;;13.40;99.90;;;;;;10339268;28;20215;-78
2022/12/29 13:07:57;;;;;;;4.33;2.90;;;13.30;99.90;;;;;;10348333;28;20279;-76
2022/12/29 13:13:17;;;;;;;4.60;3.17;;;13.30;99.90;;;;;;10353658;28;20219;-78
2022/12/29 13:18:28;;;;;;;2.80;2.60;;;13.30;99.90;;;;;;10339113;28;20199;-77
2022/12/29 13:23:35;;;;;;;3.17;2.87;;;13.30;99.90;;;;;;10340582;28;20225;-77
2022/12/29 13:28:55;;;;;;;2.73;2.53;;;13.40;99.90;;;;;;10338150;28;20290;-77
2022/12/29 13:34:06;;;;;;;4.77;3.33;;;13.40;99.90;;;;;;10331903;28;20280;-78
2022/12/29 13:39:14;;;;;;;2.53;2.43;;;13.40;99.90;;;;;;10336027;28;20655;-77
2022/12/29 13:44:21;;;;;;;3.63;3.03;;;13.50;99.90;;;;;;10336117;28;20691;-77
2022/12/29 13:49:25;;;;;;;6.33;3.20;;;13.50;99.90;;;;;;10334634;28;20225;-77
2022/12/29 13:54:38;;;;;;;4.47;2.87;;;13.40;99.90;;;;;;10354143;28;20254;-77
2022/12/29 13:59:49;;;;;;;3.27;2.97;;;13.50;99.90;;;;;;10336068;28;20191;-78
2022/12/29 14:05:01;;;;;;;3.00;2.80;;;13.40;99.90;;;;;;10335877;28;20218;-77
2022/12/29 14:10:03;;;;;;;4.90;3.37;;;13.40;99.90;;;;;;10346967;28;20199;-77
2022/12/29 14:15:15;;;;;;;3.30;3.00;;;13.40;99.90;;;;;;10329571;28;20552;-78
2022/12/29 14:20:23;;;;;;;3.57;3.40;;;13.40;99.90;;;;;;10345280;28;20215;-77
2022/12/29 14:25:57;;;;;;;3.40;3.10;;;13.40;99.90;;;;;;10338796;28;20721;-78
2022/12/29 14:31:00;;;;;;;4.10;3.23;;;13.40;99.90;;;;;;10334473;28;20224;-77
2022/12/29 14:36:26;;;;;;;11.70;7.67;;;13.30;99.90;;;;;;10339438;28;20203;-77
2022/12/29 14:41:31;;;;;;;3.43;3.27;;;13.30;99.90;;;;;;10332827;28;20643;-77
2022/12/29 14:46:56;;;;;;;3.30;3.03;;;13.20;99.90;;;;;;10339983;28;20203;-78
2022/12/29 14:52:13;;;;;;;3.40;3.20;;;13.20;99.90;;;;;;10332793;28;20714;-77
2022/12/29 14:57:35;;;;;;;3.00;2.87;;;13.10;99.90;;;;;;10338465;28;20203;-77
2022/12/29 15:02:42;;;;;;;5.90;3.67;;;13.10;99.90;;;;;;10333314;28;20663;-77
2022/12/29 15:07:45;;;;;;;3.40;3.10;;;13.10;99.90;;;;;;10334975;28;20197;-77
2022/12/29 15:12:53;;;;;;;4.10;3.50;;;13.10;99.90;;;;;;10333188;28;20231;-77
2022/12/29 15:17:55;;;;;;;3.93;3.60;;;13.00;99.90;;;;;;10333881;28;20233;-77
2022/12/29 15:23:03;;;;;;;3.77;3.47;;;13.00;99.90;;;;;;10328114;28;20696;-77
2022/12/29 15:28:07;;;;;;;4.37;4.00;;;13.00;99.90;;;;;;10331557;28;20209;-77
2022/12/29 15:33:19;;;;;;;3.50;3.20;;;13.00;99.90;;;;;;10331293;28;20227;-77
2022/12/29 15:38:25;;;;;;;3.10;2.73;;;13.00;99.90;;;;;;10329647;28;20202;-77
2022/12/29 15:43:48;;;;;;;4.10;3.53;;;12.90;99.90;;;;;;10331072;28;20227;-77
2022/12/29 15:48:50;;;;;;;4.07;3.10;;;12.90;99.90;;;;;;10324710;28;20195;-77
2022/12/29 15:53:55;;;;;;;6.07;5.07;;;12.80;99.90;;;;;;10325942;28;20227;-77
2022/12/29 15:58:57;;;;;;;4.90;4.03;;;12.90;99.90;;;;;;10321674;28;20395;-77
2022/12/29 16:04:01;;;;;;;5.57;3.83;;;12.90;99.90;;;;;;10332522;28;20306;-78
2022/12/29 16:09:06;;;;;;;3.83;3.20;;;12.90;99.90;;;;;;10339885;28;20211;-77
2022/12/29 16:14:11;;;;;;;2.30;2.10;;;12.90;99.90;;;;;;10315900;28;20660;-77
2022/12/29 16:19:18;;;;;;;2.53;2.43;;;12.80;99.90;;;;;;10340324;28;20249;-78
2022/12/29 16:24:26;;;;;;;2.80;2.60;;;12.70;99.90;;;;;;10349842;28;20222;-77
2022/12/29 16:29:30;;;;;;;2.27;2.10;;;12.60;99.90;;;;;;10348324;28;20199;-77
2022/12/29 16:34:42;;;;;;;2.53;2.33;;;12.50;99.90;;;;;;10345023;28;20321;-77
2022/12/29 16:39:46;;;;;;;2.97;2.77;;;12.40;99.90;;;;;;10342377;28;20202;-77
2022/12/29 16:44:48;;;;;;;2.60;2.50;;;12.40;99.90;;;;;;10347149;28;20218;-77
2022/12/29 16:49:53;;;;;;;2.23;2.13;;;12.40;99.90;;;;;;10343644;28;20195;-77
2022/12/29 16:55:00;;;;;;;3.00;2.90;;;12.30;99.90;;;;;;10331427;28;20231;-77
2022/12/29 17:00:07;;;;;;;1.23;1.20;;;12.30;99.90;;;;;;10346646;28;20208;-80
2022/12/29 17:05:13;;;;;;;3.00;2.80;;;12.20;99.90;;;;;;10359837;28;20540;-80
2022/12/29 17:10:17;;;;;;;7.17;6.47;;;12.20;99.90;;;;;;10351140;28;20215;-80
2022/12/29 17:15:25;;;;;;;4.50;3.70;;;12.10;99.90;;;;;;10331400;28;20223;-82
2022/12/29 17:20:29;;;;;;;7.10;6.50;;;11.90;99.90;;;;;;10347617;28;20207;-80
2022/12/29 17:25:37;;;;;;;12.50;9.97;;;11.80;99.90;;;;;;10322694;28;20196;-79
2022/12/29 17:30:40;;;;;;;10.63;9.63;;;11.70;99.90;;;;;;10356739;28;20458;-79
2022/12/29 17:35:43;;;;;;;5.57;5.17;;;11.60;99.90;;;;;;10360443;28;20223;-78
2022/12/29 17:40:47;;;;;;;4.53;4.23;;;11.50;99.90;;;;;;10357697;28;20589;-78
2022/12/29 17:45:53;;;;;;;7.50;6.80;;;11.50;99.90;;;;;;10360252;28;20219;-79
2022/12/29 17:50:58;;;;;;;5.70;5.40;;;11.40;99.90;;;;;;10358195;28;20215;-78
2022/12/29 17:56:02;;;;;;;4.43;4.20;;;11.30;99.90;;;;;;10363039;28;20203;-79
2022/12/29 18:01:05;;;;;;;4.93;4.73;;;11.20;99.90;;;;;;10358851;28;20226;-79
2022/12/29 18:06:08;;;;;;;6.30;5.80;;;11.20;99.90;;;;;;10363314;28;20222;-79
2022/12/29 18:11:22;;;;;;;4.80;4.53;;;11.20;99.90;;;;;;10361126;28;20227;-78
2022/12/29 18:16:25;;;;;;;4.00;3.70;;;11.10;99.90;;;;;;10363451;28;20255;-78
2022/12/29 18:21:27;;;;;;;3.70;3.50;;;11.10;99.90;;;;;;10363087;28;20275;-79
2022/12/29 18:26:34;;;;;;;4.57;3.70;;;11.10;99.90;;;;;;10367737;28;20214;-79
2022/12/29 18:31:37;;;;;;;6.77;6.17;;;11.20;99.90;;;;;;10359970;28;20241;-78
2022/12/29 18:36:39;;;;;;;8.13;7.73;;;11.20;99.90;;;;;;10365856;28;20363;-79
2022/12/29 18:41:42;;;;;;;9.03;8.53;;;11.10;99.90;;;;;;10367242;28;20222;-79
2022/12/29 18:46:44;;;;;;;8.63;8.13;;;11.10;99.90;;;;;;10358411;28;20199;-78
2022/12/29 18:51:48;;;;;;;11.40;10.67;;;11.10;99.90;;;;;;10358284;28;20219;-78
2022/12/29 18:56:51;;;;;;;11.57;10.97;;;11.10;99.90;;;;;;10360905;28;20218;-78
2022/12/29 19:01:53;;;;;;;11.13;10.43;;;11.10;99.90;;;;;;10362156;28;20274;-79
2022/12/29 19:06:55;;;;;;;8.00;7.60;;;11.00;99.90;;;;;;10361234;28;20241;-78
2022/12/29 19:11:59;;;;;;;11.00;10.30;;;11.00;99.90;;;;;;10360931;28;20234;-78
2022/12/29 19:17:01;;;;;;;9.30;8.70;;;10.90;99.90;;;;;;10357829;28;20230;-78
2022/12/29 19:22:03;;;;;;;9.03;8.43;;;10.90;99.90;;;;;;10357774;28;20242;-78
2022/12/29 19:27:06;;;;;;;10.57;9.87;;;10.90;99.90;;;;;;10357058;28;20195;-78
2022/12/29 19:32:08;;;;;;;10.53;9.73;;;10.80;99.90;;;;;;10355833;28;20285;-78
2022/12/29 19:37:11;;;;;;;11.10;10.40;;;10.80;99.90;;;;;;10359253;28;20204;-78
2022/12/29 19:42:14;;;;;;;9.10;8.47;;;10.80;99.90;;;;;;10358805;28;20221;-78
2022/12/29 19:47:16;;;;;;;10.10;9.60;;;10.70;99.90;;;;;;10358487;28;20219;-79
2022/12/29 19:52:18;;;;;;;7.40;7.00;;;10.70;99.90;;;;;;10356619;28;20211;-78
2022/12/29 19:57:22;;;;;;;14.00;12.90;;;10.70;99.90;;;;;;10358979;28;20230;-78
2022/12/29 20:02:26;;;;;;;8.20;7.70;;;10.60;99.90;;;;;;10357104;28;20219;-78
2022/12/29 20:07:29;;;;;;;10.37;9.83;;;10.60;99.90;;;;;;10355523;28;20206;-80
2022/12/29 20:12:33;;;;;;;9.30;8.60;;;10.50;99.90;;;;;;10357304;28;20235;-80
2022/12/29 20:17:36;;;;;;;9.87;9.20;;;10.50;99.90;;;;;;10357585;28;20199;-78
2022/12/29 20:22:38;;;;;;;6.53;6.23;;;10.40;99.90;;;;;;10355018;28;20227;-78
2022/12/29 20:27:41;;;;;;;8.90;8.50;;;10.30;99.90;;;;;;10339732;28;20191;-79
2022/12/29 20:32:44;;;;;;;8.43;7.83;;;10.30;99.90;;;;;;10356311;28;20212;-79
2022/12/29 20:37:46;;;;;;;8.10;7.70;;;10.20;99.90;;;;;;10357977;28;20196;-78
2022/12/29 20:42:49;;;;;;;8.90;8.50;;;10.20;99.90;;;;;;10355051;28;20333;-78
2022/12/29 20:47:51;;;;;;;8.70;8.33;;;10.20;99.90;;;;;;10358013;28;20209;-79
2022/12/29 20:52:53;;;;;;;12.93;12.03;;;10.20;99.90;;;;;;10358207;28;20215;-79
2022/12/29 20:57:57;;;;;;;15.03;13.93;;;10.20;99.90;;;;;;10352144;28;20196;-79
2022/12/29 21:02:59;;;;;;;10.60;9.80;;;10.20;99.90;;;;;;10325839;28;20306;-79
2022/12/29 21:08:02;;;;;;;9.40;9.00;;;10.20;99.90;;;;;;10350702;28;20730;-79
2022/12/29 21:13:05;;;;;;;9.50;8.97;;;10.20;99.90;;;;;;10358815;28;20223;-80
2022/12/29 21:18:07;;;;;;;9.03;8.63;;;10.20;99.90;;;;;;10361142;28;20553;-80
2022/12/29 21:23:09;;;;;;;9.97;9.33;;;10.10;99.90;;;;;;10377774;28;20277;-81
2022/12/29 21:28:13;;;;;;;8.77;8.07;;;10.10;99.90;;;;;;10357591;28;20199;-79
2022/12/29 21:33:15;;;;;;;8.33;8.03;;;10.00;99.90;;;;;;10336374;28;20219;-79
2022/12/29 21:38:17;;;;;;;8.07;7.67;;;10.00;99.90;;;;;;10354219;28;20203;-80
2022/12/29 21:43:20;;;;;;;7.70;7.30;;;9.90;99.90;;;;;;10324537;28;20283;-82
2022/12/29 21:48:23;;;;;;;7.63;7.33;;;9.90;99.90;;;;;;10339517;28;20199;-80
2022/12/29 21:53:36;;;;;;;7.47;7.07;;;9.70;99.90;;;;;;10357790;28;20227;-80
2022/12/29 22:14:42;;;;;;;6.90;6.50;;;9.40;99.90;;;;;;10334846;28;20223;-81
2022/12/29 22:19:44;;;;;;;6.30;6.00;;;9.30;99.90;;;;;;10350501;28;20199;-81
2022/12/29 22:24:46;;;;;;;5.90;5.70;;;9.20;99.90;;;;;;10349333;28;20288;-81
2022/12/29 22:29:50;;;;;;;5.00;4.90;;;9.10;99.90;;;;;;10350842;28;20226;-81
2022/12/29 22:34:52;;;;;;;5.00;4.80;;;9.10;99.90;;;;;;10346852;28;20223;-79
2022/12/29 22:39:54;;;;;;;4.40;4.30;;;9.10;99.90;;;;;;10347815;28;20202;-81
2022/12/29 22:44:57;;;;;;;3.97;3.77;;;9.10;99.90;;;;;;10348813;28;20196;-80
2022/12/29 22:50:00;;;;;;;4.43;4.23;;;9.10;99.90;;;;;;10347228;28;20199;-81
2022/12/29 22:55:02;;;;;;;5.50;5.20;;;9.10;99.90;;;;;;10345392;28;20223;-80
2022/12/29 23:00:08;;;;;;;3.73;3.63;;;9.20;99.90;;;;;;10329093;28;20199;-80
2022/12/29 23:05:10;;;;;;;2.93;2.83;;;9.20;99.90;;;;;;10343842;28;20200;-79
2022/12/29 23:10:12;;;;;;;4.97;4.77;;;9.30;99.90;;;;;;10328063;28;20253;-81
2022/12/29 23:15:16;;;;;;;5.40;5.20;;;9.40;99.90;;;;;;10350104;28;20302;-81
2022/12/29 23:20:18;;;;;;;6.07;5.77;;;9.50;99.90;;;;;;10348914;28;20219;-81
2022/12/29 23:25:20;;;;;;;5.00;4.67;;;9.50;99.90;;;;;;10335110;28;20203;-80
2022/12/29 23:30:24;;;;;;;5.27;5.07;;;9.60;99.90;;;;;;10356802;28;20226;-81
2022/12/29 23:35:26;;;;;;;4.57;4.37;;;9.60;99.90;;;;;;10337085;28;20227;-80
2022/12/29 23:40:28;;;;;;;4.30;4.10;;;9.70;99.90;;;;;;10354244;28;20227;-81
2022/12/29 23:45:35;;;;;;;4.20;4.10;;;9.80;99.90;;;;;;10337759;28;20203;-80
2022/12/29 23:50:40;;;;;;;4.30;4.10;;;9.80;99.90;;;;;;10354156;28;20215;-81
2022/12/29 23:55:43;;;;;;;3.83;3.73;;;9.70;99.90;;;;;;10338498;28;20218;-81
